CYFD weather

Brantford Municipal Airport
Brantford, Ontario, Canada

Public forecast

Using degrees Celsius for public forecast. Weather courtesy of forecast.io.

METAR (pilot weather report)

Closest report is John C. Munro Hamilton International Airport, 18.0 nm (33.4 km) E. Retrieved 2019/01/18 21:00 UTC (45 minutes ago):

CYHM 182100Z 29012G20KT 15SM -SN FEW022 OVC028 M03/M07 A3010 RMK CU2SC6 PRESRR SLP208

TAF (pilot weather forecast)

Closest forecast is John C. Munro Hamilton International Airport, 18.0 nm (33.4 km) E. Retrieved 2019/01/18 18:42 UTC (3 hours ago):

TAF CYHM 181739Z 1818/1918 26012G22KT P6SM SCT015 BKN030 TEMPO 1818/1822 6SM -SHSN BKN015 OVC030 BECMG 1819/1821 28012G22KT FM182200 29010KT P6SM SCT030 OVC200 FM190300 33007KT P6SM FEW020 OVC100 BECMG 1904/1906 03010G20KT FM191000 04012G22KT 2SM -SN BLSN BKN015 OVC070 FM191400 04015G25KT 1SM -SN BLSN OVC015 RMK NXT FCST BY 190000Z